Latest Weather Observations for Toowoomba

IDQ60901

Issued at 8:31 am EST Thursday 18 July 2024 (issued every 10 minutes, with the page automatically refreshed every 10 minutes)

About weather observations | Map of Brisbane area stations | Latest observations for Brisbane area | Other Formats
Station Details ID: 041529 Name: TOOWOOMBA AIRPORT Lat: -27.54 Lon: 151.91 Height: 640.9 m
Data from the previous 72 hours. | See also: Recent months at Toowoomba
Date/Time
EST
Temp
°C
App
Temp
°C
Dew
Point
°C
Rel
Hum
%
Delta-T
°C
Wind Press
QNH
hPa
Press
MSL
hPa
Rain since
9am
mm
Dir  Spd
km/h
Gust
km/h
Spd
kts
Gust
kts
18/08:30am 6.3 1.2 5.9 97 0.2 W 22 30 12 16 1016.6 1016.1 0.2
18/08:05am 5.9 0.3 5.6 98 0.1 WSW 24 37 13 20 1016.4 1015.9 0.2
18/08:00am 5.9 0.3 5.6 98 0.1 WSW 24 37 13 20 1016.4 1015.9 0.2
18/07:42am 5.7 0.9 5.4 98 0.1 WSW 20 28 11 15 1016.3 1015.8 0.2
18/07:30am 5.6 0.0 5.3 98 0.1 WSW 24 32 13 17 1016.2 1015.7 0.2
18/07:00am 5.5 0.3 5.4 99 0.0 W 22 30 12 16 1015.9 1015.3 0.2
18/06:56am 5.5 -0.1 5.4 99 0.0 W 24 32 13 17 1015.9 1015.3 0.2
18/06:32am 5.5 0.3 5.4 99 0.0 WSW 22 28 12 15 1015.8 1015.2 0.2
18/06:30am 5.5 0.3 5.4 99 0.0 WSW 22 28 12 15 1015.7 1015.1 0.2
18/06:21am 5.5 0.7 5.4 99 0.0 WSW 20 30 11 16 1015.6 1015.0 0.2
18/06:09am 5.5 -0.1 5.4 99 0.0 WSW 24 33 13 18 1015.4 1014.8 0.2
18/06:05am 5.5 -0.1 5.4 99 0.0 WSW 24 35 13 19 1015.5 1014.9 0.2
18/06:00am 5.5 -0.5 5.4 99 0.0 W 26 35 14 19 1015.5 1014.9 0.2
18/05:30am 5.3 0.4 5.2 99 0.0 W 20 30 11 16 1015.4 1014.8 0.2
18/05:13am 5.2 -0.1 5.1 99 0.0 W 22 28 12 15 1015.3 1014.7 0.2
18/05:00am 5.2 0.3 5.1 99 0.0 W 20 26 11 14 1015.3 1014.7 0.2
18/04:54am 5.1 0.2 5.0 99 0.0 W 20 26 11 14 1015.1 1014.6 0.2
18/04:30am 4.9 -0.1 4.8 99 0.0 W 20 26 11 14 1015.0 1014.5 0.0
18/04:00am 4.8 -1.0 4.5 98 0.1 W 24 30 13 16 1015.0 1014.5 0.0
18/03:30am 4.7 -0.3 4.4 98 0.1 W 20 28 11 15 1015.1 1014.6 0.0
18/03:11am 4.6 -0.5 4.3 98 0.1 W 20 26 11 14 1015.3 1014.7 0.0
18/03:00am 4.6 -0.8 4.3 98 0.1 WNW 22 28 12 15 1015.1 1014.6 0.0
18/02:48am 4.5 -1.0 4.2 98 0.1 WNW 22 30 12 16 1015.0 1014.5 0.0
18/02:30am 4.6 0.1 4.3 98 0.1 WNW 17 22 9 12 1015.4 1014.8 0.0
18/02:27am 4.6 0.1 4.2 97 0.2 WNW 17 22 9 12 1015.4 1014.8 0.0
18/02:00am 4.7 0.2 4.3 97 0.2 WNW 17 22 9 12 1015.5 1014.9 0.0
18/01:30am 4.8 0.3 4.4 97 0.2 WNW 17 22 9 12 1015.5 1014.9 0.0
18/01:00am 4.7 0.2 4.3 97 0.2 WNW 17 22 9 12 1015.6 1015.0 0.0
18/12:30am 4.6 -0.3 4.0 96 0.3 WNW 19 24 10 13 1015.5 1014.9 0.0
18/12:15am 4.9 0.0 4.3 96 0.3 WNW 19 24 10 13 1015.4 1014.8 0.0
18/12:00am 5.2 0.1 4.3 94 0.4 W 20 26 11 14 1015.5 1014.9 0.0
 
Date/Time
EST
Temp
°C
App
Temp
°C
Dew
Point
°C
Rel
Hum
%
Delta-T
°C
Wind Press
QNH
hPa
Press
MSL
hPa
Rain since
9am
mm
Dir  Spd
km/h
Gust
km/h
Spd
kts
Gust
kts
17/11:30pm 5.7 -0.1 4.5 92 0.5 W 24 33 13 18 1015.6 1015.0 0.0
17/11:00pm 5.4 -0.6 3.6 88 0.8 W 24 37 13 20 1015.8 1015.2 0.0
17/10:30pm 5.4 -0.5 4.1 91 0.6 W 24 32 13 17 1015.7 1015.1 0.0
17/10:06pm 6.0 0.2 4.5 90 0.7 W 24 33 13 18 1015.9 1015.3 0.0
17/10:00pm 6.1 0.0 4.6 90 0.7 W 26 33 14 18 1015.9 1015.3 0.0
17/09:30pm 6.2 0.5 4.7 90 0.7 W 24 32 13 17 1015.9 1015.3 0.0
17/09:00pm 6.3 0.2 4.6 89 0.8 W 26 39 14 21 1015.8 1015.2 0.0
17/08:30pm 6.2 -0.4 4.4 88 0.8 W 28 43 15 23 1015.4 1014.8 0.0
17/08:07pm 6.5 0.3 4.2 85 1.0 W 26 37 14 20 1015.3 1014.7 0.0
17/08:00pm 6.5 -0.1 4.2 85 1.0 W 28 37 15 20 1015.0 1014.5 0.0
17/07:30pm 6.6 -0.1 3.9 83 1.2 W 28 37 15 20 1014.8 1014.3 0.0
17/07:00pm 6.5 0.6 3.7 82 1.2 W 24 32 13 17 1014.4 1013.8 0.0
17/06:30pm 6.6 1.0 3.4 80 1.4 W 22 32 12 17 1014.1 1013.5 0.0
17/06:00pm 7.4 1.4 3.5 76 1.7 W 24 32 13 17 1013.8 1013.2 0.0
17/05:30pm 7.4 1.1 3.6 77 1.7 W 26 35 14 19 1013.2 1012.6 0.0
17/05:00pm 7.4 0.6 3.3 75 1.8 W 28 41 15 22 1012.9 1012.3 0.0
17/04:30pm 7.3 1.0 3.5 77 1.7 W 26 39 14 21 1012.7 1012.1 0.0
17/04:00pm 7.5 0.7 3.2 74 1.9 W 28 41 15 22 1012.6 1012.0 0.0
17/03:30pm 7.4 0.7 3.6 77 1.7 W 28 39 15 21 1012.5 1011.9 0.0
17/03:00pm 7.6 0.9 3.6 76 1.8 W 28 43 15 23 1012.2 1011.6 0.0
17/02:32pm 7.8 1.1 3.8 76 1.8 W 28 46 15 25 1012.1 1011.5 0.0
17/02:30pm 7.8 1.1 3.7 75 1.8 W 28 35 15 19 1012.1 1011.5 0.0
17/02:00pm 7.9 0.8 3.6 74 1.9 W 30 41 16 22 1012.0 1011.3 0.0
17/01:30pm 7.6 0.5 3.3 74 1.9 W 30 41 16 22 1012.2 1011.6 0.0
17/01:12pm 7.6 0.9 3.5 75 1.8 W 28 39 15 21 1012.4 1011.8 0.0
17/01:00pm 7.5 0.8 3.6 76 1.7 W 28 41 15 22 1012.4 1011.8 0.0
17/12:30pm 7.1 0.0 3.3 77 1.7 W 30 37 16 20 1012.7 1012.1 0.0
17/12:00pm 6.8 0.0 3.1 77 1.6 W 28 37 15 20 1013.2 1012.6 0.0
17/11:30am 7.0 -0.1 3.6 79 1.5 W 30 39 16 21 1013.6 1013.0 0.0
17/11:00am 6.8 0.0 3.2 78 1.6 WNW 28 35 15 19 1014.1 1013.5 0.0
17/10:30am 6.3 1.1 3.3 81 1.3 W 20 28 11 15 1014.6 1014.0 0.0
17/10:00am 5.5 -0.6 3.0 84 1.1 W 24 35 13 19 1014.8 1014.3 0.0
17/09:30am 4.6 -1.4 3.3 91 0.6 W 24 32 13 17 1014.6 1014.0 0.0
17/09:00am 3.9 -1.2 2.9 93 0.4 WNW 19 24 10 13 1014.5 1013.9 0.0
17/08:54am 3.7 -1.7 2.2 90 0.6 WNW 20 30 11 16 1014.4 1013.8 0.0
17/08:45am 3.7 -1.7 2.2 90 0.6 WNW 20 24 11 13 1014.4 1013.8 0.0
17/08:30am 3.1 -2.2 1.8 91 0.5 WNW 19 26 10 14 1014.1 1013.5 0.0
17/08:00am 2.3 -3.3 1.1 92 0.5 WNW 20 26 11 14 1013.8 1013.2 0.0
17/07:56am 2.3 -3.7 1.1 92 0.5 WNW 22 28 12 15 1013.8 1013.2 0.0
17/07:30am 2.4 -3.0 1.2 92 0.5 W 19 26 10 14 1013.7 1013.1 0.0
17/07:25am 2.3 -3.1 1.1 92 0.5 W 19 26 10 14 1013.6 1013.0 0.0
17/07:00am 2.2 -3.8 1.0 92 0.5 W 22 30 12 16 1013.2 1012.6 0.0
17/06:39am 1.5 -4.6 0.5 93 0.4 W 22 30 12 16 1013.0 1012.4 0.0
17/06:30am 1.1 -4.7 0.1 93 0.4 W 20 28 11 15 1012.9 1012.3 0.0
17/06:00am 0.9 -4.9 -0.1 93 0.4 W 20 26 11 14 1012.6 1012.0 0.0
17/05:30am 0.1 -5.8 -1.0 92 0.4 W 20 26 11 14 1012.3 1011.7 0.0
17/05:00am 0.3 -5.6 -1.1 90 0.5 WNW 20 28 11 15 1012.0 1011.3 0.0
17/04:30am 1.7 -4.5 -0.5 85 0.8 WNW 22 30 12 16 1011.8 1011.2 0.0
17/04:00am 3.7 -3.9 0.8 81 1.2 W 30 41 16 22 1011.5 1010.9 0.0
17/03:30am 3.8 -3.4 0.5 79 1.3 W 28 37 15 20 1011.7 1011.1 0.0
17/03:00am 4.2 -3.5 0.2 75 1.6 W 30 39 16 21 1011.6 1011.0 0.0
17/02:30am 4.5 -2.8 -0.1 72 1.8 WSW 28 41 15 22 1011.6 1011.0 0.0
17/02:00am 4.6 -3.1 -0.2 71 1.9 WSW 30 41 16 22 1011.7 1011.1 0.0
17/01:30am 5.1 -3.0 -0.3 68 2.1 WSW 32 44 17 24 1012.1 1011.5 0.0
17/01:00am 5.3 -2.8 -0.3 67 2.2 WSW 32 43 17 23 1012.4 1011.8 0.0
17/12:30am 5.8 -2.3 -0.5 64 2.5 WSW 32 41 17 22 1012.6 1012.0 0.0
17/12:00am 6.2 -1.2 -0.7 61 2.7 WSW 28 39 15 21 1012.8 1012.2 0.0
 
Date/Time
EST
Temp
°C
App
Temp
°C
Dew
Point
°C
Rel
Hum
%
Delta-T
°C
Wind Press
QNH
hPa
Press
MSL
hPa
Rain since
9am
mm
Dir  Spd
km/h
Gust
km/h
Spd
kts
Gust
kts
16/11:30pm 6.3 -0.8 -1.1 59 2.9 WSW 26 35 14 19 1013.0 1012.4 0.0
16/11:00pm 6.9 -0.5 -1.0 57 3.1 W 28 37 15 20 1013.2 1012.6 0.0
16/10:30pm 7.2 -0.3 -1.2 55 3.3 W 28 39 15 21 1013.3 1012.7 0.0
16/10:00pm 6.5 -0.1 -0.7 60 2.9 WSW 24 33 13 18 1013.3 1012.7 0.0
16/09:30pm 6.5 -0.8 0.0 63 2.6 WSW 28 33 15 18 1013.2 1012.6 0.0
16/09:00pm 6.7 -0.2 0.4 64 2.6 WSW 26 32 14 17 1013.4 1012.9 0.0
16/08:30pm 7.1 0.3 0.8 64 2.6 WSW 26 35 14 19 1013.4 1012.9 0.0
16/08:00pm 7.6 0.9 1.2 64 2.7 WSW 26 33 14 18 1013.2 1012.6 0.0
16/07:30pm 7.6 0.9 1.5 65 2.6 WSW 26 33 14 18 1012.9 1012.3 0.0
16/07:00pm 8.2 1.1 1.4 62 2.9 W 28 37 15 20 1012.4 1011.8 0.0
16/06:30pm 8.7 1.2 1.4 60 3.1 W 30 41 16 22 1012.2 1011.6 0.0
16/06:00pm 9.1 2.1 1.8 60 3.2 W 28 39 15 21 1011.8 1011.2 0.0
16/05:30pm 9.2 2.4 0.9 56 3.5 W 26 33 14 18 1011.4 1010.8 0.0
16/05:00pm 10.0 2.0 0.6 52 4.0 W 32 41 17 22 1011.0 1010.4 0.0
16/04:36pm 10.7 2.5 0.2 48 4.4 W 33 52 18 28 1010.8 1010.2 0.0
16/04:30pm 10.9 2.4 0.6 49 4.4 W 35 46 19 25 1010.8 1010.2 0.0
16/04:00pm 11.0 2.8 0.4 48 4.5 W 33 44 18 24 1010.6 1009.9 0.0
16/03:30pm 11.0 2.3 -0.2 46 4.7 W 35 50 19 27 1010.5 1009.8 0.0
16/03:00pm 11.9 2.1 0.1 44 5.0 W 41 61 22 33 1010.3 1009.6 0.0
16/02:43pm 12.1 3.4 -0.4 42 5.3 W 35 61 19 33 1010.1 1009.5 0.0
16/02:30pm 11.9 2.9 0.4 45 4.9 W 37 50 20 27 1010.1 1009.5 0.0
16/02:00pm 11.1 2.4 -0.4 45 4.8 W 35 50 19 27 1010.4 1009.7 0.0
16/01:38pm 11.1 2.5 -0.1 46 4.7 W 35 57 19 31 1010.6 1009.9 0.0
16/01:30pm 10.9 2.3 0.3 48 4.5 W 35 50 19 27 1010.7 1010.0 0.0
16/01:07pm 10.8 1.0 -0.3 46 4.6 W 41 61 22 33 1010.8 1010.2 0.0
16/01:00pm 10.9 1.8 -0.5 45 4.8 W 37 50 20 27 1010.8 1010.2 0.0
16/12:30pm 11.2 2.2 0.3 47 4.6 W 37 54 20 29 1011.3 1010.7 0.0
16/12:21pm 11.1 3.1 1.6 52 4.2 W 33 52 18 28 1011.4 1010.8 0.0
16/12:00pm 11.4 2.6 1.6 51 4.3 W 37 52 20 28 1011.6 1011.0 0.0
16/11:30am 10.2 1.3 0.8 52 4.0 W 37 50 20 27 1012.4 1011.8 0.0
16/11:00am 11.3 3.0 2.1 53 4.1 W 35 48 19 26 1012.7 1012.1 0.0
16/10:38am 9.7 1.3 1.6 57 3.5 W 35 56 19 30 1013.0 1012.4 0.0
16/10:30am 10.1 1.6 2.9 61 3.2 W 37 48 20 26 1013.2 1012.6 0.0
16/10:01am 8.6 1.1 3.2 69 2.4 W 32 50 17 27 1013.3 1012.7 0.0
16/10:00am 9.2 1.9 4.4 72 2.2 W 32 46 17 25 1013.4 1012.9 0.0
16/09:30am 7.6 2.2 4.4 80 1.5 WNW 22 33 12 18 1013.6 1013.0 0.0
16/09:10am 5.9 0.3 5.6 98 0.1 WNW 24 32 13 17 1013.4 1012.9 0.0
16/09:00am 5.2 0.3 5.1 99 0.0 WNW 20 30 11 16 1013.4 1012.9 0.0
16/08:42am 4.2 -1.3 4.1 99 0.0 W 22 28 12 15 1013.4 1012.9 0.0
16/08:30am 3.8 -1.4 3.7 99 0.0 WNW 20 30 11 16 1013.3 1012.7 0.0
16/08:00am 2.6 -2.8 2.5 99 0.0 W 20 28 11 15 1013.2 1012.6 0.0
16/07:30am 2.0 -3.5 1.9 99 0.0 WNW 20 30 11 16 1013.0 1012.4 0.0
16/07:00am 2.0 -3.5 1.9 99 0.0 WNW 20 28 11 15 1012.7 1012.1 0.0
16/06:30am 2.3 -2.9 2.2 99 0.0 WNW 19 28 10 15 1012.3 1011.7 0.0
16/06:20am 2.3 -3.1 2.2 99 0.0 WNW 20 24 11 13 1012.2 1011.6 0.0
16/06:13am 2.2 -3.1 2.1 99 0.0 WNW 19 24 10 13 1012.2 1011.6 0.0
16/06:05am 2.2 -3.1 2.1 99 0.0 WNW 19 24 10 13 1012.2 1011.6 0.0
16/06:04am 2.2 -3.1 1.9 98 0.1 WNW 19 24 10 13 1012.2 1011.6 0.0
16/06:03am 2.2 -3.1 1.9 98 0.1 WNW 19 24 10 13 1012.2 1011.6 0.0
16/06:00am 2.2 -3.1 1.9 98 0.1 WNW 19 26 10 14 1012.1 1011.5 0.0
16/05:50am 2.2 -3.1 1.9 98 0.1 WNW 19 28 10 15 1012.1 1011.5 0.0
16/05:30am 2.4 -2.9 2.1 98 0.1 WNW 19 26 10 14 1012.0 1011.3 0.0
16/05:00am 2.3 -2.6 2.0 98 0.1 WNW 17 22 9 12 1011.6 1011.0 0.0
16/04:30am 2.2 -2.3 1.9 98 0.1 WNW 15 19 8 10 1011.3 1010.7 0.0
16/04:00am 2.4 -2.1 2.1 98 0.1 W 15 20 8 11 1011.5 1010.9 0.0
16/03:37am 2.5 -2.4 2.1 97 0.2 WNW 17 20 9 11 1011.6 1011.0 0.0
16/03:35am 2.5 -2.4 2.1 97 0.2 WNW 17 20 9 11 1011.6 1011.0 0.0
16/03:32am 2.5 -2.0 2.1 97 0.2 WNW 15 17 8 9 1011.7 1011.1 0.0
16/03:30am 2.5 -2.0 2.1 97 0.2 WNW 15 19 8 10 1011.7 1011.1 0.0
16/03:29am 2.5 -2.0 2.1 97 0.2 WNW 15 19 8 10 1011.7 1011.1 0.0
16/03:00am 2.7 -1.8 2.0 95 0.3 WNW 15 19 8 10 1011.6 1011.0 0.0
16/02:30am 3.4 -0.8 1.4 87 0.8 W 13 19 7 10 1011.7 1011.1 0.0
16/02:00am 3.4 -1.5 1.9 90 0.6 WSW 17 22 9 12 1011.7 1011.1 0.0
16/01:30am 3.6 -1.3 2.0 89 0.7 WSW 17 20 9 11 1011.8 1011.2 0.0
16/01:00am 3.8 -1.1 2.2 89 0.7 WSW 17 20 9 11 1012.1 1011.5 0.0
16/12:30am 4.1 -1.3 2.6 90 0.6 WSW 20 26 11 14 1012.2 1011.6 0.0
16/12:00am 4.5 -0.8 2.8 89 0.7 WSW 20 26 11 14 1012.2 1011.6 0.0
 
Date/Time
EST
Temp
°C
App
Temp
°C
Dew
Point
°C
Rel
Hum
%
Delta-T
°C
Wind Press
QNH
hPa
Press
MSL
hPa
Rain since
9am
mm
Dir  Spd
km/h
Gust
km/h
Spd
kts
Gust
kts
15/11:30pm 5.0 -0.3 3.2 88 0.8 WSW 20 26 11 14 1012.2 1011.6 0.0
15/11:00pm 5.5 -0.1 3.2 85 1.0 WSW 22 30 12 16 1012.5 1011.9 0.0
15/10:30pm 5.5 0.2 3.0 84 1.1 WSW 20 28 11 15 1012.8 1012.2 0.0
15/10:00pm 5.6 0.3 2.9 83 1.2 WSW 20 26 11 14 1012.8 1012.2 0.0
15/09:30pm 5.9 0.6 3.1 82 1.2 WSW 20 28 11 15 1012.8 1012.2 0.0
15/09:00pm 5.8 0.4 2.6 80 1.4 WSW 20 26 11 14 1013.0 1012.4 0.0
15/08:30pm 6.1 0.7 2.6 78 1.5 WSW 20 26 11 14 1012.9 1012.3 0.0
15/08:00pm 6.8 1.1 2.7 75 1.8 WSW 22 32 12 17 1012.9 1012.3 0.0
15/07:30pm 6.4 1.2 2.3 75 1.7 WSW 19 24 10 13 1012.9 1012.3 0.0
15/07:00pm 7.5 1.7 2.4 70 2.2 WSW 22 28 12 15 1012.6 1012.0 0.0
15/06:30pm 7.8 2.4 2.3 68 2.4 WSW 20 24 11 13 1012.5 1011.9 0.0
15/06:00pm 8.6 3.2 2.4 65 2.7 WSW 20 28 11 15 1012.2 1011.6 0.0
15/05:30pm 9.3 3.8 1.9 60 3.2 W 20 28 11 15 1011.8 1011.2 0.0
15/05:00pm 10.2 3.9 1.8 56 3.7 W 24 30 13 16 1011.4 1010.8 0.0
15/04:30pm 10.5 3.7 1.1 52 4.1 W 26 37 14 20 1011.3 1010.7 0.0
15/04:00pm 10.9 3.4 1.2 51 4.2 WSW 30 37 16 20 1011.1 1010.5 0.0
15/03:30pm 11.1 4.0 1.1 50 4.3 W 28 35 15 19 1011.1 1010.5 0.0
15/03:00pm 11.8 4.2 0.3 45 4.9 W 30 41 16 22 1011.0 1010.4 0.0
15/02:30pm 12.8 6.2 2.1 48 4.8 WSW 26 39 14 21 1011.0 1010.4 0.0
15/02:00pm 10.8 4.2 1.9 54 3.9 WSW 26 35 14 19 1011.5 1010.9 0.0
15/01:30pm 11.3 4.8 2.6 55 3.9 W 26 35 14 19 1011.7 1011.1 0.0
15/01:00pm 12.0 6.1 3.8 57 3.8 W 24 32 13 17 1012.1 1011.5 0.0
15/12:30pm 10.5 5.2 3.1 60 3.3 WSW 20 28 11 15 1012.5 1011.9 0.0
15/12:00pm 9.7 3.6 2.8 62 3.1 WSW 24 32 13 17 1013.0 1012.4 0.0
15/11:30am 10.2 5.0 3.7 64 3.0 SW 20 28 11 15 1013.4 1012.9 0.0
15/11:00am 9.3 4.2 3.9 69 2.5 WSW 20 30 11 16 1014.0 1013.4 0.0
15/10:30am 8.1 4.0 4.1 76 1.8 WSW 15 20 8 11 1014.4 1013.8 0.0
15/10:00am 7.3 2.8 4.4 82 1.3 WSW 17 22 9 12 1014.6 1014.0 0.0
15/09:30am 6.5 2.4 4.5 87 0.9 WSW 15 19 8 10 1014.7 1014.1 0.0
15/09:00am 5.2 2.2 3.9 91 0.6 WNW 9 15 5 8 1014.6 1014.0 0.0

Latest Capital City Observations: Canberra | Sydney | Melbourne | Brisbane | Adelaide | Perth | Hobart | Darwin

Other formats

Comma delimited format used in spreadsheet applications
http://www.bom.gov.au/fwo/IDQ60901/IDQ60901.95551.axf

JavaScript Object Notation format (JSON) in row-major order
http://www.bom.gov.au/fwo/IDQ60901/IDQ60901.95551.json

Data quality

Most of these data are generated automatically and are frequently updated. Quality checks on data are not normally performed. It is possible for incorrect values to appear. Refer to information at About Latest Weather Observations and please check the disclaimer before using these data.